Accueil
METAR-TAF:

METAR-TAF

Aéroports :

Aéroport de Samos

Samos, Grèce

latitude: 37-42N, longitude: 026-55E, altitude: 2 m

Observation

Le bulletin a été fait il y a 4 heures et 15 minutes, à 19:20 UTC
Vent calme
Température 24°C
Humidité 74%
Pression 1012 hPa
Visibilité 10 km ou plus
Quelques nuages à une hauteur de 2500 ft

METAR: LGSM 211920Z 00000KT 9999 FEW025 24/19 Q1012

Heure: 02:35 (23:35 UTC)

Prévision

Le bulletin a été fait il y a 35 minutes, à 23:00 UTC
Prévision valable du 22 à 00 UTC au 22 à 09 UTC
Vent 8 kt de ouest
Visibilité 10 km ou plus
Nuages épars à une hauteur de 2000 ft
Probabilité 30% :
Temporairement
du 22 à 00 UTC au 22 à 06 UTC
Visibilité: 5000 m
Nuages épars à une hauteur de 1500 ft
Quelques nuages à une hauteur de 1800 ft, Cumulonimbus.
Nuages fragmentés à une hauteur de 3000 ft
orage, pluie

TAF: LGSM 212300Z 2200/2209 26008KT 9999 SCT020 PROB30 TEMPO 2200/2206 5000 TSRA SCT015 FEW018CB BKN030

Observations et prévisions météorologiques de plus de 4000 aéroports (messages METAR et TAF).

Les stations disponibles sont représentées par des disques jaunes et rouges sur la carte.

Passer la souris dessus pour voir le nom de la station.

Cliquer dessus pour voir les observations et prévisions météorologiques.

Pour changer de carte: cliquez sur les boutons verts avec une croix noire pour zoomer, sur le bouton vert avec un tiret pour effectuer un zoom arrière, ou sur les flèches vertes pour les cartes adjacentes.


METAR-TAF: